Time;durP1;ratioP1;P1;durP2;ratioP2;P2;SDS_P1;SDS_P2;PMS_P1;PMS_P2;Temp;Humidity;BMP_temperature;BMP_pressure;BME280_temperature;BME280_humidity;BME280_pressure;Samples;Min_cycle;Max_cycle;Signal;HPM_P1;HPM_P2
2022/06/23 00:01:27;;;;;;;;;;;;;;;24.70;50.63;99176.59;3132923;28;19940;-68
2022/06/23 00:02:59;;;;;;;;;;;;;;;24.66;50.57;99185.94;3132576;28;19928;-68
2022/06/23 00:04:32;;;;;;;;;;;;;;;24.63;50.59;99188.94;3132760;28;20411;-69
2022/06/23 00:06:06;;;;;;;;;;;;;;;24.63;50.51;99180.13;3132942;28;19927;-68
2022/06/23 00:07:39;;;;;;;;;;;;;;;24.53;50.76;99164.38;3132275;28;19990;-69
2022/06/23 00:09:33;;;;;;;;;;;;;;;24.60;50.75;99177.81;3132735;28;19929;-68
2022/06/23 00:11:05;;;;;;;;;;;;;;;24.57;50.89;99183.50;3132670;28;20007;-68
2022/06/23 00:12:38;;;;;;;;;;;;;;;24.55;51.22;99177.50;3132776;28;19931;-68
2022/06/23 00:14:12;;;;;;;;;;;;;;;24.55;51.14;99180.16;3136978;28;19921;-68
2022/06/23 00:15:45;;;;;;;;;;;;;;;24.54;51.31;99179.34;3135176;28;19928;-68
2022/06/23 00:17:21;;;;;;;;;;;;;;;24.54;51.30;99187.34;3133505;28;19937;-68
2022/06/23 00:18:53;;;;;;;;;;;;;;;24.50;51.06;99178.88;3129970;28;19975;-68
2022/06/23 00:20:25;;;;;;;;;;;;;;;24.48;51.10;99180.88;3134815;28;19932;-68
2022/06/23 00:21:57;;;;;;;;;;;;;;;24.49;51.22;99173.72;3134991;28;19924;-68
2022/06/23 00:23:30;;;;;;;;;;;;;;;24.49;50.99;99171.91;3134670;28;20374;-68
2022/06/23 00:25:04;;;;;;;;;;;;;;;24.52;51.16;99170.69;3135166;28;19921;-68
2022/06/23 00:26:37;;;;;;;;;;;;;;;24.52;51.21;99174.22;3135224;28;19920;-68
2022/06/23 00:28:14;;;;;;;;;;;;;;;24.50;51.08;99172.72;3134709;28;20004;-68
2022/06/23 00:29:46;;;;;;;;;;;;;;;24.49;51.19;99165.72;3134878;28;19920;-68
2022/06/23 00:31:25;;;;;;;;;;;;;;;24.47;51.08;99171.22;3134609;28;19928;-68
2022/06/23 00:33:05;;;;;;;;;;;;;;;24.48;51.06;99174.72;3135298;28;19921;-68
2022/06/23 00:34:38;;;;;;;;;;;;;;;24.46;50.69;99163.41;3135201;28;20390;-68
2022/06/23 00:36:17;;;;;;;;;;;;;;;24.46;51.07;99160.75;3134802;28;19943;-69
2022/06/23 00:37:50;;;;;;;;;;;;;;;24.48;50.79;99164.06;3134754;28;19921;-68
2022/06/23 00:39:28;;;;;;;;;;;;;;;24.47;50.58;99165.09;3134192;28;20015;-68
2022/06/23 00:41:00;;;;;;;;;;;;;;;24.45;51.01;99159.09;3135069;28;20310;-68
2022/06/23 00:42:33;;;;;;;;;;;;;;;24.41;50.76;99158.59;3134553;28;20290;-68
2022/06/23 00:44:06;;;;;;;;;;;;;;;24.39;50.92;99157.09;3132706;28;20444;-69
2022/06/23 00:45:40;;;;;;;;;;;;;;;24.35;51.17;99156.63;3134422;28;19983;-68
2022/06/23 00:47:15;;;;;;;;;;;;;;;24.32;51.33;99150.84;3134729;28;19978;-69
2022/06/23 00:48:49;;;;;;;;;;;;;;;24.28;51.00;99156.50;3134922;28;20065;-68
2022/06/23 00:50:25;;;;;;;;;;;;;;;24.27;51.38;99156.66;3134247;28;19921;-69
2022/06/23 00:52:00;;;;;;;;;;;;;;;24.26;51.38;99163.00;3134385;28;20384;-69
2022/06/23 00:53:33;;;;;;;;;;;;;;;24.26;51.26;99160.34;3134574;28;19921;-68
2022/06/23 00:55:23;;;;;;;;;;;;;;;24.22;51.37;99159.81;3134263;28;20073;-68
2022/06/23 00:56:59;;;;;;;;;;;;;;;24.21;51.14;99141.38;3134894;28;19921;-69
2022/06/23 00:58:36;;;;;;;;;;;;;;;24.20;51.43;99151.22;3134547;28;19982;-69
2022/06/23 01:00:09;;;;;;;;;;;;;;;24.19;51.34;99151.38;3134282;28;19920;-69
2022/06/23 01:01:45;;;;;;;;;;;;;;;24.17;51.41;99148.06;3134678;28;19921;-69
2022/06/23 01:03:18;;;;;;;;;;;;;;;24.15;51.59;99153.53;3131342;28;20674;-69
2022/06/23 01:04:53;;;;;;;;;;;;;;;24.14;51.29;99156.41;3134704;28;19921;-69
2022/06/23 01:06:28;;;;;;;;;;;;;;;24.10;51.34;99160.38;3134191;28;20353;-69
2022/06/23 01:08:02;;;;;;;;;;;;;;;24.09;51.40;99159.56;3134413;28;19920;-69
2022/06/23 01:09:40;;;;;;;;;;;;;;;24.09;51.48;99156.06;3134342;28;19921;-69
2022/06/23 01:11:13;;;;;;;;;;;;;;;24.08;51.45;99152.59;3134004;28;19968;-69
2022/06/23 01:12:48;;;;;;;;;;;;;;;24.05;51.75;99152.94;3135020;28;19927;-68
2022/06/23 01:14:25;;;;;;;;;;;;;;;24.04;51.67;99165.38;3139930;28;19920;-69
2022/06/23 01:15:58;;;;;;;;;;;;;;;24.01;51.80;99163.06;3135257;28;19921;-69
2022/06/23 01:17:34;;;;;;;;;;;;;;;23.99;52.00;99158.94;3133003;28;20438;-69
2022/06/23 01:19:14;;;;;;;;;;;;;;;23.96;51.83;99164.56;3131072;28;19939;-68
2022/06/23 01:20:51;;;;;;;;;;;;;;;23.93;51.78;99165.78;3135254;28;19920;-68
2022/06/23 01:22:26;;;;;;;;;;;;;;;23.92;52.18;99172.06;3134473;28;20253;-67
2022/06/23 01:24:20;;;;;;;;;;;;;;;23.91;52.30;99157.13;3134675;28;20310;-67
2022/06/23 01:26:02;;;;;;;;;;;;;;;23.89;51.97;99169.75;3134066;28;19924;-67
2022/06/23 01:27:46;;;;;;;;;;;;;;;23.87;52.03;99166.44;3134212;28;19959;-67
2022/06/23 01:29:21;;;;;;;;;;;;;;;23.86;52.44;99169.25;3133974;28;20022;-67
2022/06/23 01:30:57;;;;;;;;;;;;;;;23.83;52.57;99165.94;3134679;28;19924;-68
2022/06/23 01:32:33;;;;;;;;;;;;;;;23.81;52.31;99157.31;3134145;28;19933;-68
2022/06/23 01:34:09;;;;;;;;;;;;;;;23.80;52.39;99154.81;3133825;28;19921;-67
2022/06/23 01:35:42;;;;;;;;;;;;;;;23.76;52.67;99151.69;3134035;28;19969;-67
2022/06/23 01:37:16;;;;;;;;;;;;;;;23.73;52.69;99149.34;3133870;28;19925;-67
2022/06/23 01:38:54;;;;;;;;;;;;;;;23.72;53.02;99147.72;3134584;28;19989;-67
2022/06/23 01:40:29;;;;;;;;;;;;;;;23.70;52.98;99144.38;3131986;28;19921;-68
2022/06/23 01:42:02;;;;;;;;;;;;;;;23.65;53.26;99149.34;3133985;28;19935;-67
2022/06/23 01:43:38;;;;;;;;;;;;;;;23.61;53.58;99145.38;3134110;28;19921;-67
2022/06/23 01:45:12;;;;;;;;;;;;;;;23.57;53.38;99157.31;3133729;28;19932;-66
2022/06/23 01:46:45;;;;;;;;;;;;;;;23.56;53.72;99158.31;3134257;28;19928;-67
2022/06/23 01:48:51;;;;;;;;;;;;;;;23.54;53.50;99150.50;3133763;28;19920;-67
2022/06/23 01:50:29;;;;;;;;;;;;;;;23.51;53.93;99139.38;3133611;28;20408;-67
2022/06/23 01:52:03;;;;;;;;;;;;;;;23.51;53.65;99139.38;3134039;28;20007;-67
2022/06/23 01:53:34;;;;;;;;;;;;;;;23.49;53.78;99142.22;3133723;28;19924;-67
2022/06/23 01:55:14;;;;;;;;;;;;;;;23.48;54.24;99150.34;3133410;28;19927;-67
2022/06/23 01:56:51;;;;;;;;;;;;;;;23.47;53.83;99160.16;3134321;28;19920;-68
2022/06/23 01:58:25;;;;;;;;;;;;;;;23.44;54.29;99151.69;3133605;28;19928;-67
2022/06/23 02:00:03;;;;;;;;;;;;;;;23.38;54.34;99161.16;3133407;28;20386;-68
2022/06/23 02:01:38;;;;;;;;;;;;;;;23.35;54.47;99162.31;3133746;28;20350;-68
2022/06/23 02:03:11;;;;;;;;;;;;;;;23.29;54.59;99165.66;3133331;28;20739;-66
2022/06/23 02:04:48;;;;;;;;;;;;;;;23.26;54.63;99168.63;3133927;28;19951;-67
2022/06/23 02:06:22;;;;;;;;;;;;;;;23.20;54.93;99164.00;3133706;28;19924;-67
2022/06/23 02:07:56;;;;;;;;;;;;;;;23.17;54.92;99161.66;3133488;28;20350;-67
2022/06/23 02:09:32;;;;;;;;;;;;;;;23.14;55.03;99162.00;3133794;28;19932;-67
2022/06/23 02:11:07;;;;;;;;;;;;;;;23.14;54.95;99156.69;3133623;28;20343;-67
2022/06/23 02:12:43;;;;;;;;;;;;;;;23.12;54.98;99156.00;3134014;28;19925;-67
2022/06/23 02:14:20;;;;;;;;;;;;;;;23.12;54.62;99158.66;3138410;28;20369;-66
2022/06/23 02:15:59;;;;;;;;;;;;;;;23.12;54.99;99161.31;3135078;28;19976;-66
2022/06/23 02:17:39;;;;;;;;;;;;;;;23.08;54.76;99158.19;3132351;28;19932;-66
2022/06/23 02:19:15;;;;;;;;;;;;;;;23.06;54.77;99160.16;3131181;28;19921;-66
2022/06/23 02:21:01;;;;;;;;;;;;;;;23.05;54.78;99166.47;3133910;28;19987;-66
2022/06/23 02:22:34;;;;;;;;;;;;;;;23.06;54.74;99164.66;3133772;28;19924;-66
2022/06/23 02:24:08;;;;;;;;;;;;;;;23.09;54.65;99151.03;3133273;28;19920;-66
2022/06/23 02:25:49;;;;;;;;;;;;;;;23.10;54.51;99164.16;3132791;28;20024;-66
2022/06/23 02:27:23;;;;;;;;;;;;;;;23.11;54.62;99157.03;3133387;28;20258;-66
2022/06/23 02:28:58;;;;;;;;;;;;;;;23.12;54.49;99163.97;3133613;28;19921;-66
2022/06/23 02:30:33;;;;;;;;;;;;;;;23.11;54.55;99155.19;3133730;28;19921;-67
2022/06/23 02:32:11;;;;;;;;;;;;;;;23.10;54.61;99158.00;3133474;28;19924;-66
2022/06/23 02:33:46;;;;;;;;;;;;;;;23.08;54.38;99160.84;3133386;28;20393;-67
2022/06/23 02:35:21;;;;;;;;;;;;;;;23.08;54.41;99157.34;3133538;28;19928;-67
2022/06/23 02:37:05;;;;;;;;;;;;;;;23.08;54.47;99152.03;3133341;28;19924;-67
2022/06/23 02:38:39;;;;;;;;;;;;;;;23.11;54.14;99146.41;3133507;28;20017;-67
2022/06/23 02:40:15;;;;;;;;;;;;;;;23.14;54.34;99151.38;3130516;28;19924;-66
2022/06/23 02:41:48;;;;;;;;;;;;;;;23.13;54.00;99145.25;3133167;28;19920;-66
2022/06/23 02:43:26;;;;;;;;;;;;;;;23.12;54.05;99142.75;3129333;28;19936;-67
2022/06/23 02:45:11;;;;;;;;;;;;;;;23.12;54.34;99143.56;3129184;28;20004;-67
2022/06/23 02:46:59;;;;;;;;;;;;;;;23.13;54.20;99141.72;3133512;28;20383;-67
2022/06/23 02:48:45;;;;;;;;;;;;;;;23.13;54.06;99136.41;3133274;28;19924;-67
2022/06/23 02:50:27;;;;;;;;;;;;;;;23.10;54.29;99140.25;3131378;28;19920;-67
2022/06/23 02:52:14;;;;;;;;;;;;;;;23.11;54.18;99131.28;3133287;28;20370;-66
2022/06/23 02:54:00;;;;;;;;;;;;;;;23.09;54.19;99133.28;3117351;28;19920;-66
2022/06/23 02:55:39;;;;;;;;;;;;;;;23.09;54.46;99127.13;3127348;28;20318;-67
2022/06/23 02:57:19;;;;;;;;;;;;;;;23.08;54.36;99136.09;3131075;28;19927;-67
2022/06/23 02:58:54;;;;;;;;;;;;;;;23.07;54.49;99131.78;3133459;28;19978;-67
2022/06/23 03:00:30;;;;;;;;;;;;;;;23.06;54.32;99140.75;3133262;28;19920;-67
2022/06/23 03:02:04;;;;;;;;;;;;;;;23.05;54.43;99139.09;3132845;28;19921;-67
2022/06/23 03:03:40;;;;;;;;;;;;;;;23.06;54.29;99144.22;3132696;28;20990;-67
2022/06/23 03:05:16;;;;;;;;;;;;;;;23.04;54.46;99134.75;3133087;28;19921;-67
2022/06/23 03:06:52;;;;;;;;;;;;;;;23.03;54.49;99138.41;3133742;28;19928;-67
2022/06/23 03:08:27;;;;;;;;;;;;;;;23.02;54.92;99131.47;3133065;28;19978;-67
2022/06/23 03:10:03;;;;;;;;;;;;;;;22.99;55.01;99129.13;3132736;28;19925;-67
2022/06/23 03:11:55;;;;;;;;;;;;;;;22.98;54.99;99132.78;3132885;28;20417;-67
2022/06/23 03:13:32;;;;;;;;;;;;;;;22.99;55.01;99137.09;3132896;28;19924;-67
2022/06/23 03:15:08;;;;;;;;;;;;;;;22.99;55.15;99137.09;3140890;28;19928;-67
2022/06/23 03:16:43;;;;;;;;;;;;;;;22.94;55.34;99133.09;3132876;28;19921;-67
2022/06/23 03:18:18;;;;;;;;;;;;;;;22.93;55.04;99136.72;3127998;28;19921;-68
2022/06/23 03:19:55;;;;;;;;;;;;;;;22.94;55.10;99132.25;3132675;28;19924;-68
2022/06/23 03:21:29;;;;;;;;;;;;;;;22.93;55.19;99146.53;3133206;28;19924;-67
2022/06/23 03:23:04;;;;;;;;;;;;;;;22.94;55.40;99143.72;3133294;28;20006;-68
2022/06/23 03:24:39;;;;;;;;;;;;;;;22.95;55.45;99147.19;3120598;28;20379;-67
2022/06/23 03:26:15;;;;;;;;;;;;;;;22.91;55.68;99151.16;3131864;28;20204;-67
2022/06/23 03:27:48;;;;;;;;;;;;;;;22.88;55.90;99148.84;3132978;28;19920;-67
2022/06/23 03:29:23;;;;;;;;;;;;;;;22.86;55.89;99148.97;3132667;28;20019;-67
2022/06/23 03:30:58;;;;;;;;;;;;;;;22.84;56.29;99152.81;3133246;28;19921;-66
2022/06/23 03:32:32;;;;;;;;;;;;;;;22.82;56.24;99144.19;3132902;28;19928;-67
2022/06/23 03:34:07;;;;;;;;;;;;;;;22.81;56.31;99143.34;3133013;28;19928;-66
2022/06/23 03:35:41;;;;;;;;;;;;;;;22.80;56.37;99144.31;3132765;28;19927;-66
2022/06/23 03:37:15;;;;;;;;;;;;;;;22.80;56.32;99146.97;3132366;28;19921;-66
2022/06/23 03:42:36;;;;;;;;;;;;;;;22.79;56.60;99160.44;3132940;28;19924;-67
2022/06/23 03:44:11;;;;;;;;;;;;;;;22.81;56.15;99159.28;3132997;28;20418;-67
2022/06/23 03:45:46;;;;;;;;;;;;;;;22.85;56.32;99165.91;3132670;28;20585;-66
2022/06/23 03:47:21;;;;;;;;;;;;;;;22.88;56.02;99160.28;3132688;28;19956;-67
2022/06/23 03:48:55;;;;;;;;;;;;;;;22.90;55.95;99166.25;3133395;28;19932;-67
2022/06/23 03:50:31;;;;;;;;;;;;;;;22.93;55.80;99154.50;3132873;28;20535;-66
2022/06/23 03:52:02;;;;;;;;;;;;;;;22.99;55.58;99167.13;3134351;28;19920;-66
2022/06/23 03:53:38;;;;;;;;;;;;;;;23.02;55.70;99173.94;3135056;28;19924;-67
2022/06/23 03:55:18;;;;;;;;;;;;;;;23.05;55.70;99171.78;3134964;28;19920;-66
2022/06/23 03:56:52;;;;;;;;;;;;;;;23.07;55.38;99179.56;3135849;28;19921;-67
2022/06/23 03:58:25;;;;;;;;;;;;;;;23.10;55.48;99179.25;3135263;28;19943;-67
2022/06/23 04:00:22;;;;;;;;;;;;;;;23.11;55.63;99180.94;3134764;28;19943;-66
2022/06/23 04:01:56;;;;;;;;;;;;;;;23.13;55.61;99173.59;3134572;28;19921;-66
2022/06/23 04:03:30;;;;;;;;;;;;;;;23.12;55.77;99182.56;3135016;28;19924;-66
2022/06/23 04:05:09;;;;;;;;;;;;;;;23.12;55.50;99187.88;3135386;28;20318;-67
2022/06/23 04:06:42;;;;;;;;;;;;;;;23.13;55.26;99185.09;3135207;28;19925;-67
2022/06/23 04:08:13;;;;;;;;;;;;;;;23.12;55.86;99183.41;3135048;28;19921;-67
2022/06/23 04:09:44;;;;;;;;;;;;;;;23.10;55.81;99184.56;3134898;28;20455;-66
2022/06/23 04:13:14;;;;;;;;;;;;;;;23.15;55.44;99192.88;3134824;28;20015;-66
2022/06/23 04:14:51;;;;;;;;;;;;;;;23.15;55.64;99193.69;3142940;28;19958;-66
2022/06/23 04:16:24;;;;;;;;;;;;;;;23.14;55.95;99192.03;3134776;28;19925;-67
2022/06/23 04:17:58;;;;;;;;;;;;;;;23.13;55.75;99190.41;3130241;28;19939;-67
2022/06/23 04:19:31;;;;;;;;;;;;;;;23.11;56.23;99186.25;3122629;28;20305;-67
2022/06/23 04:21:04;;;;;;;;;;;;;;;23.08;56.36;99189.22;3133795;28;20382;-67
2022/06/23 04:22:39;;;;;;;;;;;;;;;23.04;56.24;99186.06;3135231;28;19970;-66
2022/06/23 04:24:15;;;;;;;;;;;;;;;23.04;56.28;99185.22;3134969;28;20146;-64
2022/06/23 04:25:50;;;;;;;;;;;;;;;23.00;56.89;99183.91;3134421;28;19927;-64
2022/06/23 04:27:27;;;;;;;;;;;;;;;23.00;56.93;99175.94;3134937;28;19936;-64
2022/06/23 04:29:06;;;;;;;;;;;;;;;22.96;56.99;99179.91;3135100;28;19931;-65
2022/06/23 04:30:39;;;;;;;;;;;;;;;22.94;57.17;99180.88;3135170;28;19925;-64
2022/06/23 04:32:14;;;;;;;;;;;;;;;22.90;56.80;99179.53;3134924;28;19947;-65
2022/06/23 04:33:48;;;;;;;;;;;;;;;22.89;56.98;99177.03;3134046;28;20003;-65
2022/06/23 04:35:23;;;;;;;;;;;;;;;22.87;57.06;99174.56;3122329;28;19925;-65
2022/06/23 04:36:55;;;;;;;;;;;;;;;22.85;57.19;99192.47;3134439;28;19921;-65
2022/06/23 04:38:31;;;;;;;;;;;;;;;22.82;57.30;99173.38;3134710;28;19921;-66
2022/06/23 04:40:06;;;;;;;;;;;;;;;22.79;57.59;99174.53;3132436;28;20456;-69
2022/06/23 04:41:42;;;;;;;;;;;;;;;22.78;57.53;99164.91;3134429;28;20004;-68
2022/06/23 04:43:16;;;;;;;;;;;;;;;22.77;57.42;99165.06;3134573;28;19924;-69
2022/06/23 04:44:49;;;;;;;;;;;;;;;22.78;57.81;99175.53;3135175;28;19978;-68
2022/06/23 04:46:27;;;;;;;;;;;;;;;22.79;57.64;99174.53;3134468;28;19920;-63
2022/06/23 04:48:00;;;;;;;;;;;;;;;22.82;57.24;99170.72;3129263;28;20475;-63
2022/06/23 04:49:36;;;;;;;;;;;;;;;22.86;57.46;99167.56;3125572;28;19928;-63
2022/06/23 04:51:16;;;;;;;;;;;;;;;22.87;57.77;99165.78;3130951;28;19975;-66
2022/06/23 04:52:50;;;;;;;;;;;;;;;22.87;57.42;99165.78;3134868;28;20005;-65
2022/06/23 04:54:25;;;;;;;;;;;;;;;22.86;57.75;99164.09;3134449;28;19921;-67
2022/06/23 04:56:01;;;;;;;;;;;;;;;22.86;57.55;99170.22;3134423;28;19920;-66
2022/06/23 04:57:39;;;;;;;;;;;;;;;22.86;58.15;99175.53;3134231;28;20401;-67
2022/06/23 04:59:24;;;;;;;;;;;;;;;22.88;58.13;99175.38;3134537;28;19931;-65
2022/06/23 05:00:55;;;;;;;;;;;;;;;22.89;57.85;99188.50;3134492;28;20033;-66
2022/06/23 05:02:31;;;;;;;;;;;;;;;22.92;57.90;99172.25;3133711;28;19927;-69
2022/06/23 05:04:03;;;;;;;;;;;;;;;22.94;57.63;99175.59;3129345;28;20418;-69
2022/06/23 05:05:36;;;;;;;;;;;;;;;22.96;57.77;99183.41;3124180;28;19925;-68
2022/06/23 05:07:19;;;;;;;;;;;;;;;23.04;57.62;99185.22;3124050;28;20004;-66
2022/06/23 05:08:51;;;;;;;;;;;;;;;23.09;57.38;99178.41;3124200;28;19929;-64
2022/06/23 05:10:26;;;;;;;;;;;;;;;23.16;57.41;99181.28;3124133;28;19928;-68
2022/06/23 05:11:58;;;;;;;;;;;;;;;23.22;57.33;99188.56;3124998;28;19940;-67
2022/06/23 05:13:36;;;;;;;;;;;;;;;23.28;57.36;99193.22;3124873;28;20444;-66
2022/06/23 05:15:19;;;;;;;;;;;;;;;23.35;57.36;99199.53;3131627;28;19925;-67
2022/06/23 05:16:51;;;;;;;;;;;;;;;23.44;57.00;99196.88;3124192;28;20288;-67
2022/06/23 05:18:25;;;;;;;;;;;;;;;23.49;56.95;99199.88;3120519;28;19993;-67
2022/06/23 05:19:58;;;;;;;;;;;;;;;23.55;56.84;99204.50;3125434;28;19930;-68
2022/06/23 05:21:31;;;;;;;;;;;;;;;23.60;56.18;99194.19;3125258;28;20463;-68
2022/06/23 05:23:04;;;;;;;;;;;;;;;23.67;56.07;99205.81;3124839;28;19936;-66
2022/06/23 05:24:38;;;;;;;;;;;;;;;23.73;55.73;99191.88;3125677;28;19925;-68
2022/06/23 05:26:14;;;;;;;;;;;;;;;23.79;55.56;99190.38;3124578;28;20381;-69
2022/06/23 05:27:48;;;;;;;;;;;;;;;23.88;55.35;99188.56;3125050;28;20150;-67
2022/06/23 05:29:22;;;;;;;;;;;;;;;23.94;55.00;99182.53;3124567;28;19972;-70
2022/06/23 05:30:58;;;;;;;;;;;;;;;24.01;54.71;99188.84;3125090;28;19924;-67
2022/06/23 05:32:33;;;;;;;;;;;;;;;24.08;54.05;99189.81;3125656;28;19968;-67
2022/06/23 05:34:07;;;;;;;;;;;;;;;24.16;53.69;99196.94;3125135;28;19925;-65
2022/06/23 05:35:42;;;;;;;;;;;;;;;24.24;53.54;99197.75;3125394;28;19924;-65
2022/06/23 05:37:17;;;;;;;;;;;;;;;24.33;53.44;99203.03;3125126;28;19925;-66
2022/06/23 05:38:52;;;;;;;;;;;;;;;24.40;53.11;99198.66;3125396;28;20015;-66
2022/06/23 05:40:28;;;;;;;;;;;;;;;24.46;53.22;99200.66;3122928;28;19924;-66
2022/06/23 05:42:01;;;;;;;;;;;;;;;24.52;52.97;99198.16;3124274;28;20491;-66
2022/06/23 05:43:39;;;;;;;;;;;;;;;24.60;52.77;99204.44;3124207;28;19931;-68
2022/06/23 05:45:14;;;;;;;;;;;;;;;24.66;52.83;99196.59;3122832;28;20433;-68
2022/06/23 05:46:48;;;;;;;;;;;;;;;24.75;52.66;99192.88;3125431;28;19936;-67
2022/06/23 05:48:21;;;;;;;;;;;;;;;24.83;52.55;99196.50;3124923;28;19924;-66
2022/06/23 05:49:54;;;;;;;;;;;;;;;24.88;50.76;99188.81;3124010;28;19925;-65
2022/06/23 05:51:30;;;;;;;;;;;;;;;24.94;50.00;99183.63;3124674;28;20080;-65
2022/06/23 05:53:06;;;;;;;;;;;;;;;25.03;49.73;99179.06;3123506;28;19930;-67
2022/06/23 05:54:42;;;;;;;;;;;;;;;25.11;49.05;99175.50;3116766;28;20507;-67
2022/06/23 05:56:16;;;;;;;;;;;;;;;25.18;49.80;99177.31;3114851;28;19932;-66
2022/06/23 05:57:51;;;;;;;;;;;;;;;25.27;48.84;99186.06;3124372;28;19978;-66
2022/06/23 05:59:25;;;;;;;;;;;;;;;25.32;47.48;99182.84;3125213;28;19978;-66
2022/06/23 06:01:01;;;;;;;;;;;;;;;25.38;47.49;99182.97;3124737;28;19934;-67
2022/06/23 06:02:38;;;;;;;;;;;;;;;25.46;47.32;99183.91;3124166;28;20227;-67
2022/06/23 06:04:15;;;;;;;;;;;;;;;25.53;46.95;99179.53;3123990;28;19960;-66
2022/06/23 06:05:48;;;;;;;;;;;;;;;25.59;47.19;99179.63;3124734;28;19994;-71
2022/06/23 06:07:21;;;;;;;;;;;;;;;25.63;46.58;99175.56;3123418;28;20652;-70
2022/06/23 06:10:44;;;;;;;;;;;;;;;25.81;47.17;99182.41;3123883;28;19925;-67
2022/06/23 06:12:18;;;;;;;;;;;;;;;25.90;47.10;99180.53;3123711;28;19925;-69
2022/06/23 06:13:49;;;;;;;;;;;;;;;25.96;46.44;99182.44;3125227;28;19963;-67
2022/06/23 06:15:22;;;;;;;;;;;;;;;26.02;46.13;99184.38;3130183;28;19929;-66
2022/06/23 06:16:56;;;;;;;;;;;;;;;26.06;45.52;99186.50;3123578;28;19955;-67
2022/06/23 06:18:32;;;;;;;;;;;;;;;26.13;45.73;99189.25;3118988;28;20357;-68
2022/06/23 06:20:06;;;;;;;;;;;;;;;26.21;46.11;99188.34;3123773;28;20439;-67
2022/06/23 06:21:38;;;;;;;;;;;;;;;26.29;45.84;99194.41;3123838;28;19931;-67
2022/06/23 06:23:13;;;;;;;;;;;;;;;26.37;45.69;99188.13;3123336;28;19931;-67
2022/06/23 06:24:49;;;;;;;;;;;;;;;26.42;44.58;99184.94;3123115;28;20031;-69
2022/06/23 06:26:23;;;;;;;;;;;;;;;26.49;44.46;99177.81;3120587;28;20049;-68
2022/06/23 06:27:55;;;;;;;;;;;;;;;26.52;44.18;99182.81;3124510;28;20267;-68
2022/06/23 06:29:29;;;;;;;;;;;;;;;26.58;44.21;99179.38;3128293;28;20023;-67
2022/06/23 06:31:03;;;;;;;;;;;;;;;26.64;44.15;99191.16;3124939;28;20432;-66
2022/06/23 06:32:42;;;;;;;;;;;;;;;26.68;44.63;99197.78;3124181;28;20330;-68
2022/06/23 06:34:18;;;;;;;;;;;;;;;26.76;44.51;99198.50;3123177;28;20123;-67
2022/06/23 06:35:54;;;;;;;;;;;;;;;26.82;44.40;99188.91;3122147;28;20455;-67
2022/06/23 06:37:29;;;;;;;;;;;;;;;26.89;44.31;99183.66;3124396;28;19964;-66
2022/06/23 06:39:05;;;;;;;;;;;;;;;26.95;43.61;99186.38;3124541;28;19924;-68
2022/06/23 06:40:38;;;;;;;;;;;;;;;26.93;43.21;99177.72;3115820;28;20016;-68
2022/06/23 06:42:13;;;;;;;;;;;;;;;26.97;43.74;99189.66;3117367;28;19929;-64
2022/06/23 06:43:45;;;;;;;;;;;;;;;27.02;44.29;99173.09;3124172;28;19932;-65
2022/06/23 06:45:19;;;;;;;;;;;;;;;27.07;44.00;99183.22;3123606;28;20012;-64
2022/06/23 06:46:51;;;;;;;;;;;;;;;27.14;43.83;99192.09;3123897;28;20375;-64
2022/06/23 06:48:25;;;;;;;;;;;;;;;27.19;44.11;99189.72;3123219;28;20382;-64
2022/06/23 06:50:06;;;;;;;;;;;;;;;27.25;44.09;99201.50;3122598;28;20496;-65
2022/06/23 06:51:40;;;;;;;;;;;;;;;27.31;43.88;99206.09;3123403;28;19925;-65
2022/06/23 06:55:04;;;;;;;;;;;;;;;27.45;44.16;99223.91;3114578;28;19928;-68
2022/06/23 06:56:39;;;;;;;;;;;;;;;27.51;44.21;99243.66;3124329;28;19974;-67
2022/06/23 06:58:13;;;;;;;;;;;;;;;27.54;44.11;99245.97;3123367;28;19929;-68
2022/06/23 06:59:47;;;;;;;;;;;;;;;27.54;43.88;99259.34;3122705;28;20075;-68
2022/06/23 07:01:21;;;;;;;;;;;;;;;27.53;44.07;99277.22;3122488;28;20048;-65
2022/06/23 07:03:01;;;;;;;;;;;;;;;27.53;44.30;99287.94;3122999;28;20758;-65
2022/06/23 07:04:36;;;;;;;;;;;;;;;27.53;44.38;99297.81;3123200;28;19925;-65
2022/06/23 07:06:11;;;;;;;;;;;;;;;27.51;44.04;99302.50;3124567;28;20558;-68
2022/06/23 07:07:43;;;;;;;;;;;;;;;27.48;44.24;99313.59;3124196;28;20344;-68
2022/06/23 07:11:22;;;;;;;;;;;;;;;27.31;45.21;99358.47;3109543;28;19929;-69
2022/06/23 07:12:56;;;;;;;;;;;;;;;27.26;45.55;99363.53;3128272;28;20313;-71
2022/06/23 07:14:31;;;;;;;;;;;;;;;27.20;46.21;99391.84;3133868;28;19924;-68
2022/06/23 07:16:05;;;;;;;;;;;;;;;27.07;46.71;99402.34;3125730;28;19929;-68
2022/06/23 07:17:41;;;;;;;;;;;;;;;26.98;47.16;99413.13;3125619;28;19947;-69
2022/06/23 07:19:15;;;;;;;;;;;;;;;26.85;47.70;99420.94;3118501;28;20031;-67
2022/06/23 07:20:51;;;;;;;;;;;;;;;26.72;48.19;99432.28;3128097;28;20011;-68
2022/06/23 07:22:27;;;;;;;;;;;;;;;26.65;48.49;99446.53;3127573;28;19925;-68
2022/06/23 07:24:02;;;;;;;;;;;;;;;26.53;49.61;99471.03;3127474;28;19971;-70
2022/06/23 07:25:36;;;;;;;;;;;;;;;26.42;50.00;99487.44;3128309;28;20023;-68
2022/06/23 07:27:13;;;;;;;;;;;;;;;26.31;50.08;99509.22;3131744;28;20369;-67
2022/06/23 07:28:47;;;;;;;;;;;;;;;26.17;51.13;99531.31;3132409;28;20012;-67
2022/06/23 07:30:19;;;;;;;;;;;;;;;26.00;52.05;99538.56;3132023;28;19931;-68
2022/06/23 07:31:56;;;;;;;;;;;;;;;25.82;53.21;99536.16;3131536;28;20329;-67
2022/06/23 07:33:31;;;;;;;;;;;;;;;25.60;54.23;99535.06;3131983;28;19946;-66
2022/06/23 07:35:07;;;;;;;;;;;;;;;25.40;54.15;99537.31;3131859;28;19925;-67
2022/06/23 07:36:42;;;;;;;;;;;;;;;25.10;56.91;99521.03;3131589;28;20325;-68
2022/06/23 07:38:18;;;;;;;;;;;;;;;24.78;58.83;99508.59;3131693;28;19994;-68
2022/06/23 07:39:53;;;;;;;;;;;;;;;24.48;58.87;99488.78;3125417;28;19925;-68
2022/06/23 07:41:28;;;;;;;;;;;;;;;24.33;59.64;99474.47;3126191;28;20393;-66
2022/06/23 07:43:03;;;;;;;;;;;;;;;24.15;59.60;99475.44;3131937;28;19931;-70
2022/06/23 07:44:38;;;;;;;;;;;;;;;23.93;61.00;99460.09;3132030;28;20023;-70
2022/06/23 07:46:09;;;;;;;;;;;;;;;23.70;62.15;99436.81;3131861;28;19924;-69
2022/06/23 07:47:41;;;;;;;;;;;;;;;23.64;61.38;99410.84;3131476;28;19935;-71
2022/06/23 07:49:13;;;;;;;;;;;;;;;23.59;61.30;99395.38;3131308;28;19943;-69
2022/06/23 07:50:45;;;;;;;;;;;;;;;23.52;61.91;99385.56;3131638;28;19928;-68
2022/06/23 07:52:18;;;;;;;;;;;;;;;23.41;62.39;99384.03;3131564;28;20096;-68
2022/06/23 07:53:53;;;;;;;;;;;;;;;23.30;64.26;99400.28;3131341;28;20396;-67
2022/06/23 07:55:26;;;;;;;;;;;;;;;23.07;65.13;99389.38;3131324;28;19931;-68
2022/06/23 07:56:57;;;;;;;;;;;;;;;22.94;65.32;99382.69;3131642;28;19974;-68
2022/06/23 07:58:31;;;;;;;;;;;;;;;22.91;64.54;99376.84;3131871;28;19939;-66
2022/06/23 08:00:07;;;;;;;;;;;;;;;22.86;65.90;99371.16;3131770;28;19929;-67
2022/06/23 08:01:42;;;;;;;;;;;;;;;22.77;66.09;99361.50;3131575;28;20100;-67
2022/06/23 08:03:15;;;;;;;;;;;;;;;22.75;65.39;99359.00;3131515;28;20728;-67
2022/06/23 08:04:54;;;;;;;;;;;;;;;22.66;66.56;99352.00;3131562;28;19928;-64
2022/06/23 08:06:27;;;;;;;;;;;;;;;22.58;67.06;99350.13;3131856;28;19931;-66
2022/06/23 08:07:59;;;;;;;;;;;;;;;22.56;66.81;99349.44;3135385;28;19932;-65
2022/06/23 08:09:34;;;;;;;;;;;;;;;22.54;67.39;99359.41;3131745;28;19924;-64
2022/06/23 08:13:00;;;;;;;;;;;;;;;22.49;67.47;99354.56;3131905;28;20453;-66
2022/06/23 08:14:34;;;;;;;;;;;;;;;22.48;67.57;99350.25;3138508;28;20026;-68
2022/06/23 08:17:56;;;;;;;;;;;;;;;22.43;68.17;99363.13;3127021;28;19925;-66
2022/06/23 08:19:32;;;;;;;;;;;;;;;22.31;68.52;99359.09;3128184;28;19939;-66
2022/06/23 08:21:06;;;;;;;;;;;;;;;22.22;69.13;99360.84;3131427;28;20395;-68
2022/06/23 08:22:39;;;;;;;;;;;;;;;22.16;69.62;99360.59;3131474;28;19974;-67
2022/06/23 08:24:12;;;;;;;;;;;;;;;22.11;69.25;99378.78;3131299;28;19925;-68
2022/06/23 08:25:46;;;;;;;;;;;;;;;22.10;69.87;99382.44;3131367;28;19925;-69
2022/06/23 08:27:19;;;;;;;;;;;;;;;22.06;69.57;99387.19;3131354;28;20523;-67
2022/06/23 08:28:53;;;;;;;;;;;;;;;22.03;69.89;99384.84;3131656;28;19924;-66
2022/06/23 08:30:26;;;;;;;;;;;;;;;22.06;69.96;99391.66;3130810;28;19928;-67
2022/06/23 08:31:59;;;;;;;;;;;;;;;22.09;69.38;99388.69;3131453;28;20381;-67
2022/06/23 08:33:32;;;;;;;;;;;;;;;22.13;69.33;99388.25;3131035;28;19931;-70